createdAt,value
2022-12-03T00:04:21.993Z,7.34
2022-12-03T00:11:07.631Z,7.45
2022-12-03T00:17:53.335Z,7.58
2022-12-03T00:24:41.392Z,7.48
2022-12-03T00:31:27.199Z,7.55
2022-12-03T00:38:12.588Z,7.68
2022-12-03T00:45:00.936Z,7.70
2022-12-03T00:51:46.416Z,7.73
2022-12-03T00:58:31.832Z,7.68
2022-12-03T01:05:20.140Z,7.53
2022-12-03T01:12:06.031Z,7.63
2022-12-03T01:18:52.492Z,7.55
2022-12-03T01:25:40.590Z,7.70
2022-12-03T01:32:26.001Z,7.85
2022-12-03T01:39:11.758Z,7.78
2022-12-03T01:45:59.988Z,7.96
2022-12-03T01:52:46.278Z,8.00
2022-12-03T01:59:38.510Z,7.94
2022-12-03T02:06:29.817Z,8.04
2022-12-03T02:13:15.291Z,8.07
2022-12-03T02:20:01.810Z,7.96
2022-12-03T02:26:49.972Z,7.89
2022-12-03T02:33:35.781Z,7.97
2022-12-03T02:40:24.539Z,7.90
2022-12-03T02:47:13.200Z,7.84
2022-12-03T02:54:00.713Z,7.93
2022-12-03T03:00:47.676Z,8.00
2022-12-03T03:07:35.811Z,8.33
2022-12-03T03:14:21.311Z,8.08
2022-12-03T03:21:08.271Z,8.17
2022-12-03T03:27:56.129Z,8.41
2022-12-03T03:34:41.569Z,8.14
2022-12-03T03:41:29.424Z,8.11
2022-12-03T04:02:06.084Z,7.96
2022-12-03T04:08:51.459Z,8.00
2022-12-03T04:15:36.995Z,7.91
2022-12-03T04:22:37.612Z,7.95
2022-12-03T04:29:23.814Z,8.05
2022-12-03T04:36:09.674Z,8.03
2022-12-03T04:42:57.963Z,8.06
2022-12-03T04:49:45.208Z,8.17
2022-12-03T04:56:30.861Z,8.20
2022-12-03T05:07:12.088Z,8.14
2022-12-03T05:13:57.537Z,8.24
2022-12-03T05:20:51.493Z,8.27
2022-12-03T05:27:41.144Z,8.30
2022-12-03T05:34:26.572Z,8.44
2022-12-03T05:41:24.268Z,8.46
2022-12-03T05:48:14.445Z,8.42
2022-12-03T05:54:59.844Z,8.29
2022-12-03T06:01:47.391Z,8.26
2022-12-03T06:08:35.485Z,8.20
2022-12-03T06:15:22.135Z,8.20
2022-12-03T06:22:07.722Z,8.27
2022-12-03T06:28:56.116Z,8.21
2022-12-03T06:35:41.649Z,8.20
2022-12-03T06:42:27.107Z,8.20
2022-12-03T06:49:15.342Z,8.09
2022-12-03T06:56:01.146Z,8.18
2022-12-03T07:02:47.161Z,8.05
2022-12-03T07:09:35.186Z,8.07
2022-12-03T07:16:20.812Z,7.96
2022-12-03T07:23:06.515Z,7.91
2022-12-03T07:29:54.645Z,7.88
2022-12-03T07:36:40.091Z,7.94
2022-12-03T07:43:25.855Z,7.92
2022-12-03T07:50:15.348Z,7.99
2022-12-03T07:57:01.842Z,8.14
2022-12-03T08:03:47.746Z,8.55
2022-12-03T08:10:35.886Z,8.32
2022-12-03T08:17:21.708Z,8.40
2022-12-03T08:24:17.975Z,8.31
2022-12-03T08:31:19.988Z,8.23
2022-12-03T08:38:14.404Z,8.40
2022-12-03T08:45:21.074Z,8.52
2022-12-03T08:52:18.084Z,8.53
2022-12-03T08:59:16.725Z,8.66
2022-12-03T09:06:02.128Z,8.76
2022-12-03T09:12:51.390Z,9.02
2022-12-03T09:19:40.057Z,9.01
2022-12-03T09:26:29.165Z,8.71
2022-12-03T09:33:17.187Z,8.76
2022-12-03T09:40:02.877Z,8.84
2022-12-03T09:46:50.051Z,8.90
2022-12-03T09:53:41.218Z,8.87
2022-12-03T10:00:30.142Z,8.83
2022-12-03T10:07:15.538Z,8.76
2022-12-03T10:14:03.935Z,8.82
2022-12-03T10:20:49.604Z,8.87
2022-12-03T10:27:35.020Z,8.86
2022-12-03T10:34:30.638Z,8.86
2022-12-03T10:41:28.320Z,8.98
2022-12-03T10:48:20.236Z,8.94
2022-12-03T10:55:13.214Z,8.95
2022-12-03T11:01:59.000Z,9.04
2022-12-03T11:08:53.020Z,8.75
2022-12-03T11:15:49.059Z,8.92
2022-12-03T11:22:47.102Z,8.94
2022-12-03T11:29:58.793Z,8.90
2022-12-03T11:37:31.270Z,8.93
2022-12-03T11:44:34.589Z,8.70
2022-12-03T11:51:23.158Z,8.68
2022-12-03T11:58:27.990Z,8.58
2022-12-03T12:05:23.486Z,8.57
2022-12-03T12:12:23.335Z,8.61
2022-12-03T12:19:35.572Z,8.65
2022-12-03T12:26:20.996Z,8.50
2022-12-03T12:33:19.952Z,8.67
2022-12-03T12:40:17.703Z,8.68
2022-12-03T12:47:10.949Z,8.46
2022-12-03T12:53:56.516Z,8.63
2022-12-03T13:00:44.928Z,8.27
2022-12-03T13:07:30.570Z,8.33
2022-12-03T13:14:22.193Z,8.06
2022-12-03T13:21:25.079Z,8.26
2022-12-03T13:28:11.577Z,8.27
2022-12-03T13:35:00.572Z,8.28
2022-12-03T13:42:02.066Z,8.16
2022-12-03T13:48:47.776Z,8.18
2022-12-03T13:55:34.745Z,8.16
2022-12-03T14:02:22.608Z,8.37
2022-12-03T14:09:08.494Z,8.29
2022-12-03T14:15:53.932Z,8.44
2022-12-03T14:22:41.983Z,8.47
2022-12-03T14:29:27.598Z,8.64
2022-12-03T14:36:13.613Z,8.61
2022-12-03T14:43:02.043Z,8.68
2022-12-03T14:49:47.955Z,8.74
2022-12-03T14:56:33.438Z,8.85
2022-12-03T15:03:21.424Z,8.73
2022-12-03T15:10:09.981Z,8.93
2022-12-03T15:16:55.544Z,8.98
2022-12-03T15:23:43.583Z,8.83
2022-12-03T15:30:29.219Z,9.15
2022-12-03T15:37:14.983Z,9.20
2022-12-03T15:44:04.922Z,9.21
2022-12-03T15:50:50.299Z,9.30
2022-12-03T15:57:35.836Z,9.39
2022-12-03T16:04:23.856Z,9.54
2022-12-03T16:11:09.608Z,9.54
2022-12-03T16:17:55.040Z,9.30
2022-12-03T16:24:43.120Z,9.27
2022-12-03T16:31:28.638Z,9.23
2022-12-03T16:38:14.427Z,9.18
2022-12-03T16:45:26.616Z,9.09
2022-12-03T16:52:12.058Z,8.96
2022-12-03T16:58:57.400Z,8.90
2022-12-03T17:05:45.437Z,8.93
2022-12-03T17:12:54.217Z,8.85
2022-12-03T17:19:37.041Z,8.87
2022-12-03T17:26:25.135Z,8.88
2022-12-03T17:33:10.632Z,8.82
2022-12-03T17:39:56.685Z,8.93
2022-12-03T17:46:45.016Z,8.87
2022-12-03T17:53:30.550Z,8.93
2022-12-03T18:00:17.352Z,8.93
2022-12-03T18:07:05.424Z,9.02
2022-12-03T18:13:50.850Z,8.93
2022-12-03T18:20:36.312Z,9.05
2022-12-03T18:27:24.983Z,8.98
2022-12-03T18:34:10.362Z,9.05
2022-12-03T18:40:59.263Z,8.95
2022-12-03T18:47:47.907Z,8.90
2022-12-03T18:54:33.418Z,8.99
2022-12-03T19:01:22.437Z,8.96
2022-12-03T19:08:14.876Z,8.99
2022-12-03T19:15:00.719Z,8.90
2022-12-03T19:21:50.773Z,8.95
2022-12-03T19:28:38.906Z,8.84
2022-12-03T19:35:24.312Z,8.93
2022-12-03T19:42:10.064Z,8.93
2022-12-03T19:48:58.632Z,8.85
2022-12-03T19:55:43.971Z,8.67
2022-12-03T20:02:29.505Z,8.87
2022-12-03T20:09:20.744Z,8.79
2022-12-03T20:16:08.793Z,8.73
2022-12-03T20:22:54.359Z,8.78
2022-12-03T20:29:42.338Z,8.79
2022-12-03T20:36:29.615Z,8.77
2022-12-03T20:43:15.000Z,8.81
2022-12-03T20:50:03.041Z,8.76
2022-12-03T20:56:48.489Z,8.75
2022-12-03T21:03:33.956Z,8.96
2022-12-03T21:10:34.701Z,8.97
2022-12-03T21:17:20.589Z,9.02
2022-12-03T21:24:10.217Z,9.05
2022-12-03T21:31:02.149Z,8.91
2022-12-03T21:37:47.760Z,8.83
2022-12-03T21:44:35.026Z,8.66
2022-12-03T21:51:23.323Z,8.49
2022-12-03T21:58:08.761Z,8.40
2022-12-03T22:04:54.467Z,8.35
2022-12-03T22:11:42.557Z,8.41
2022-12-03T22:18:28.043Z,8.37
2022-12-03T22:25:13.568Z,8.45
2022-12-03T22:32:01.942Z,8.57
2022-12-03T22:38:47.416Z,8.61
2022-12-03T22:45:32.856Z,8.53
2022-12-03T22:52:20.917Z,8.35
2022-12-03T22:59:06.388Z,8.27
2022-12-03T23:05:51.824Z,8.39
2022-12-03T23:12:40.431Z,8.24
2022-12-03T23:19:25.953Z,8.43
2022-12-03T23:26:14.565Z,8.51
2022-12-03T23:33:02.645Z,8.42
2022-12-03T23:39:49.925Z,8.42
2022-12-03T23:46:35.379Z,8.23
2022-12-03T23:53:23.498Z,8.07
